Terminal Aerodrome Forecast
Issued by NWS

Home | Current Version | Previous Version | Text Only | Print | Product List | Glossary On
Versions: 1 2 3 4 5 6 7 8 9 10 11 12 13 14 15 16 17 18 19 20 21 22
054
FTUS44 KLIX 201129
TAFMSY
TAF
KMSY 201129Z 2012/2112 17004KT P6SM SCT045
      TEMPO 2012/2013 1SM BR BKN002
     FM201500 23006KT P6SM BKN030
     FM201800 21009KT P6SM SCT035 BKN120
     FM210100 20008KT P6SM SCT035 BKN050
     FM210500 20010KT 4SM TSRA BR BKN025CB
     FM211100 23008KT 6SM -RA BR SCT005 OVC020=

USA.gov is the U.S. government's official web portal to all federal, state and local government web resources and services.